sensor_id;sensor_type;location;lat;lon;timestamp;pressure;altitude;pressure_sealevel;temperature;humidity
28000;BME280;15328;50.860;10.562;2023-04-26T00:01:22;96447.66;;;6.33;48.81
28000;BME280;15328;50.860;10.562;2023-04-26T00:06:22;96455.50;;;6.27;49.07
28000;BME280;15328;50.860;10.562;2023-04-26T00:11:22;96458.28;;;6.40;48.82
28000;BME280;15328;50.860;10.562;2023-04-26T00:16:23;96468.66;;;6.41;48.63
28000;BME280;15328;50.860;10.562;2023-04-26T00:21:23;96463.63;;;6.25;49.09
28000;BME280;15328;50.860;10.562;2023-04-26T00:26:24;96462.41;;;6.28;49.10
28000;BME280;15328;50.860;10.562;2023-04-26T00:31:24;96469.28;;;6.22;49.63
28000;BME280;15328;50.860;10.562;2023-04-26T00:36:25;96468.47;;;6.22;49.73
28000;BME280;15328;50.860;10.562;2023-04-26T00:41:25;96468.75;;;6.05;50.50
28000;BME280;15328;50.860;10.562;2023-04-26T00:46:28;96470.03;;;5.95;50.76
28000;BME280;15328;50.860;10.562;2023-04-26T00:51:30;96469.69;;;5.83;51.65
28000;BME280;15328;50.860;10.562;2023-04-26T00:56:31;96473.81;;;5.71;51.82
28000;BME280;15328;50.860;10.562;2023-04-26T01:01:32;96464.25;;;5.48;52.22
28000;BME280;15328;50.860;10.562;2023-04-26T01:06:34;96467.63;;;5.27;52.85
28000;BME280;15328;50.860;10.562;2023-04-26T01:11:37;96471.00;;;5.21;53.34
28000;BME280;15328;50.860;10.562;2023-04-26T01:16:38;96468.72;;;5.18;52.93
28000;BME280;15328;50.860;10.562;2023-04-26T01:21:39;96471.75;;;5.01;54.02
28000;BME280;15328;50.860;10.562;2023-04-26T01:26:41;96475.44;;;4.91;54.64
28000;BME280;15328;50.860;10.562;2023-04-26T01:31:47;96474.81;;;4.89;55.29
28000;BME280;15328;50.860;10.562;2023-04-26T01:36:48;96470.81;;;4.79;54.81
28000;BME280;15328;50.860;10.562;2023-04-26T01:41:48;96470.25;;;4.69;56.16
28000;BME280;15328;50.860;10.562;2023-04-26T01:46:49;96463.19;;;4.69;55.43
28000;BME280;15328;50.860;10.562;2023-04-26T01:51:49;96465.06;;;4.60;55.87
28000;BME280;15328;50.860;10.562;2023-04-26T01:56:50;96466.59;;;4.55;55.74
28000;BME280;15328;50.860;10.562;2023-04-26T02:01:51;96473.31;;;4.57;56.51
28000;BME280;15328;50.860;10.562;2023-04-26T02:06:51;96463.59;;;4.58;57.60
28000;BME280;15328;50.860;10.562;2023-04-26T02:11:52;96474.22;;;4.64;57.06
28000;BME280;15328;50.860;10.562;2023-04-26T02:16:52;96468.34;;;4.77;57.31
28000;BME280;15328;50.860;10.562;2023-04-26T02:21:54;96470.44;;;4.82;56.84
28000;BME280;15328;50.860;10.562;2023-04-26T02:26:56;96471.25;;;4.82;56.93
28000;BME280;15328;50.860;10.562;2023-04-26T02:31:59;96462.72;;;4.80;57.13
28000;BME280;15328;50.860;10.562;2023-04-26T02:37:00;96456.19;;;4.76;56.34
28000;BME280;15328;50.860;10.562;2023-04-26T02:42:00;96457.41;;;4.65;56.48
28000;BME280;15328;50.860;10.562;2023-04-26T02:47:01;96464.88;;;4.62;56.50
28000;BME280;15328;50.860;10.562;2023-04-26T02:52:02;96458.25;;;4.81;55.59
28000;BME280;15328;50.860;10.562;2023-04-26T02:57:02;96464.09;;;4.76;56.44
28000;BME280;15328;50.860;10.562;2023-04-26T03:02:05;96457.16;;;4.90;55.99
28000;BME280;15328;50.860;10.562;2023-04-26T03:07:06;96463.56;;;4.95;55.81
28000;BME280;15328;50.860;10.562;2023-04-26T03:12:07;96469.84;;;4.94;56.28
28000;BME280;15328;50.860;10.562;2023-04-26T03:17:08;96463.19;;;4.99;55.76
28000;BME280;15328;50.860;10.562;2023-04-26T03:22:08;96468.72;;;5.04;55.68
28000;BME280;15328;50.860;10.562;2023-04-26T03:27:13;96472.00;;;5.06;54.77
28000;BME280;15328;50.860;10.562;2023-04-26T03:32:13;96476.72;;;5.10;54.98
28000;BME280;15328;50.860;10.562;2023-04-26T03:37:14;96486.44;;;4.80;55.68
28000;BME280;15328;50.860;10.562;2023-04-26T03:42:14;96486.41;;;4.65;56.07
28000;BME280;15328;50.860;10.562;2023-04-26T03:47:14;96481.59;;;4.54;56.19
28000;BME280;15328;50.860;10.562;2023-04-26T03:52:15;96484.59;;;4.51;55.95
28000;BME280;15328;50.860;10.562;2023-04-26T03:57:15;96484.06;;;4.33;56.34
28000;BME280;15328;50.860;10.562;2023-04-26T04:02:16;96471.13;;;4.46;55.84
28000;BME280;15328;50.860;10.562;2023-04-26T04:07:16;96469.16;;;4.25;56.76
28000;BME280;15328;50.860;10.562;2023-04-26T04:12:18;96471.34;;;4.22;56.87
28000;BME280;15328;50.860;10.562;2023-04-26T04:17:18;96480.31;;;4.13;56.59
28000;BME280;15328;50.860;10.562;2023-04-26T04:22:18;96483.34;;;4.01;57.42
28000;BME280;15328;50.860;10.562;2023-04-26T04:27:19;96483.69;;;3.98;57.63
28000;BME280;15328;50.860;10.562;2023-04-26T04:32:21;96480.41;;;3.96;57.43
28000;BME280;15328;50.860;10.562;2023-04-26T04:37:22;96485.13;;;4.24;57.21
28000;BME280;15328;50.860;10.562;2023-04-26T04:42:24;96486.34;;;4.36;57.08
28000;BME280;15328;50.860;10.562;2023-04-26T04:47:26;96497.56;;;4.53;56.26
28000;BME280;15328;50.860;10.562;2023-04-26T04:52:26;96500.25;;;4.68;56.64
28000;BME280;15328;50.860;10.562;2023-04-26T04:57:27;96489.81;;;4.74;56.37
28000;BME280;15328;50.860;10.562;2023-04-26T05:02:27;96493.53;;;4.80;56.83
28000;BME280;15328;50.860;10.562;2023-04-26T05:07:27;96495.19;;;5.10;55.81
28000;BME280;15328;50.860;10.562;2023-04-26T05:12:28;96513.03;;;5.23;55.24
28000;BME280;15328;50.860;10.562;2023-04-26T05:17:29;96509.00;;;5.42;54.33
28000;BME280;15328;50.860;10.562;2023-04-26T05:22:31;96505.34;;;5.43;53.47
28000;BME280;15328;50.860;10.562;2023-04-26T05:27:31;96514.00;;;5.51;53.36
28000;BME280;15328;50.860;10.562;2023-04-26T05:32:32;96522.00;;;5.58;52.77
28000;BME280;15328;50.860;10.562;2023-04-26T05:37:32;96522.25;;;5.63;52.73
28000;BME280;15328;50.860;10.562;2023-04-26T05:42:33;96523.78;;;5.72;52.30
28000;BME280;15328;50.860;10.562;2023-04-26T05:47:34;96532.31;;;5.74;51.73
28000;BME280;15328;50.860;10.562;2023-04-26T05:52:34;96545.25;;;5.84;52.32
28000;BME280;15328;50.860;10.562;2023-04-26T05:57:34;96539.25;;;5.90;51.91
28000;BME280;15328;50.860;10.562;2023-04-26T06:02:35;96548.50;;;6.01;51.94
28000;BME280;15328;50.860;10.562;2023-04-26T06:07:35;96547.09;;;6.19;51.20
28000;BME280;15328;50.860;10.562;2023-04-26T06:12:35;96552.34;;;6.34;50.94
28000;BME280;15328;50.860;10.562;2023-04-26T06:17:36;96547.94;;;6.63;50.63
28000;BME280;15328;50.860;10.562;2023-04-26T06:22:36;96547.41;;;6.74;49.81
28000;BME280;15328;50.860;10.562;2023-04-26T06:27:37;96553.28;;;6.97;50.01
28000;BME280;15328;50.860;10.562;2023-04-26T06:32:39;96547.78;;;7.27;49.19
28000;BME280;15328;50.860;10.562;2023-04-26T06:37:40;96550.38;;;7.48;48.29
28000;BME280;15328;50.860;10.562;2023-04-26T06:42:44;96555.63;;;7.41;47.54
28000;BME280;15328;50.860;10.562;2023-04-26T06:47:44;96557.75;;;7.25;47.71
28000;BME280;15328;50.860;10.562;2023-04-26T06:52:48;96560.97;;;7.48;47.48
28000;BME280;15328;50.860;10.562;2023-04-26T06:57:51;96558.97;;;7.57;46.34
28000;BME280;15328;50.860;10.562;2023-04-26T07:02:54;96563.72;;;7.68;45.58
28000;BME280;15328;50.860;10.562;2023-04-26T07:07:55;96561.06;;;7.68;45.06
28000;BME280;15328;50.860;10.562;2023-04-26T07:12:55;96557.22;;;7.70;44.95
28000;BME280;15328;50.860;10.562;2023-04-26T07:17:55;96562.97;;;7.87;44.86
28000;BME280;15328;50.860;10.562;2023-04-26T07:22:56;96571.19;;;7.99;43.10
28000;BME280;15328;50.860;10.562;2023-04-26T07:27:56;96569.78;;;8.10;43.15
28000;BME280;15328;50.860;10.562;2023-04-26T07:33:00;96563.56;;;8.37;43.68
28000;BME280;15328;50.860;10.562;2023-04-26T07:38:01;96574.13;;;8.30;42.96
28000;BME280;15328;50.860;10.562;2023-04-26T07:43:01;96564.72;;;8.21;43.33
28000;BME280;15328;50.860;10.562;2023-04-26T07:48:02;96571.94;;;8.47;41.59
28000;BME280;15328;50.860;10.562;2023-04-26T07:53:03;96577.09;;;8.68;41.74
28000;BME280;15328;50.860;10.562;2023-04-26T07:58:03;96577.53;;;8.85;40.59
28000;BME280;15328;50.860;10.562;2023-04-26T08:03:07;96574.44;;;9.21;39.87
28000;BME280;15328;50.860;10.562;2023-04-26T08:08:11;96582.63;;;8.87;38.77
28000;BME280;15328;50.860;10.562;2023-04-26T08:13:11;96585.03;;;8.62;38.80
28000;BME280;15328;50.860;10.562;2023-04-26T08:18:12;96585.28;;;9.00;40.55
28000;BME280;15328;50.860;10.562;2023-04-26T08:23:12;96581.59;;;9.21;38.29
28000;BME280;15328;50.860;10.562;2023-04-26T08:28:13;96587.75;;;9.08;37.67
28000;BME280;15328;50.860;10.562;2023-04-26T08:33:13;96576.50;;;9.19;37.79
28000;BME280;15328;50.860;10.562;2023-04-26T08:38:14;96576.25;;;9.54;36.50
28000;BME280;15328;50.860;10.562;2023-04-26T08:43:15;96574.19;;;9.63;36.63
28000;BME280;15328;50.860;10.562;2023-04-26T08:48:18;96586.06;;;9.60;37.69
28000;BME280;15328;50.860;10.562;2023-04-26T08:53:18;96581.78;;;9.46;36.93
28000;BME280;15328;50.860;10.562;2023-04-26T08:58:19;96587.69;;;9.61;37.22
28000;BME280;15328;50.860;10.562;2023-04-26T09:03:22;96588.47;;;9.68;36.81
28000;BME280;15328;50.860;10.562;2023-04-26T09:08:22;96582.00;;;10.22;37.14
28000;BME280;15328;50.860;10.562;2023-04-26T09:13:27;96587.22;;;10.35;36.14
28000;BME280;15328;50.860;10.562;2023-04-26T09:18:28;96596.00;;;10.42;36.80
28000;BME280;15328;50.860;10.562;2023-04-26T09:23:30;96589.34;;;10.20;36.70
28000;BME280;15328;50.860;10.562;2023-04-26T09:28:31;96598.59;;;10.04;36.83
28000;BME280;15328;50.860;10.562;2023-04-26T09:33:31;96573.59;;;10.18;34.96
28000;BME280;15328;50.860;10.562;2023-04-26T09:38:41;96580.72;;;10.31;34.70
28000;BME280;15328;50.860;10.562;2023-04-26T09:43:44;96591.94;;;10.33;35.41
28000;BME280;15328;50.860;10.562;2023-04-26T09:48:59;96589.75;;;10.24;35.20
28000;BME280;15328;50.860;10.562;2023-04-26T09:54:00;96585.69;;;10.14;34.66
28000;BME280;15328;50.860;10.562;2023-04-26T09:59:00;96588.72;;;10.25;34.57
28000;BME280;15328;50.860;10.562;2023-04-26T10:04:05;96591.69;;;10.79;34.68
28000;BME280;15328;50.860;10.562;2023-04-26T10:09:06;96588.94;;;11.18;33.03
28000;BME280;15328;50.860;10.562;2023-04-26T10:14:08;96592.66;;;10.85;33.81
28000;BME280;15328;50.860;10.562;2023-04-26T10:19:09;96587.50;;;10.59;33.27
28000;BME280;15328;50.860;10.562;2023-04-26T10:24:09;96580.50;;;10.64;33.07
28000;BME280;15328;50.860;10.562;2023-04-26T10:29:10;96588.28;;;11.22;31.84
28000;BME280;15328;50.860;10.562;2023-04-26T10:34:18;96581.31;;;11.21;32.46
28000;BME280;15328;50.860;10.562;2023-04-26T10:39:19;96591.78;;;10.98;33.82
28000;BME280;15328;50.860;10.562;2023-04-26T10:44:40;96593.81;;;10.71;33.45
28000;BME280;15328;50.860;10.562;2023-04-26T10:49:44;96579.78;;;10.50;33.02
28000;BME280;15328;50.860;10.562;2023-04-26T10:54:55;96580.22;;;10.47;33.20
28000;BME280;15328;50.860;10.562;2023-04-26T11:05:40;96581.53;;;10.63;32.48
28000;BME280;15328;50.860;10.562;2023-04-26T11:16:04;96576.53;;;10.48;32.78
28000;BME280;15328;50.860;10.562;2023-04-26T11:21:05;96562.09;;;10.63;32.88
28000;BME280;15328;50.860;10.562;2023-04-26T11:26:06;96568.34;;;10.81;32.92
28000;BME280;15328;50.860;10.562;2023-04-26T11:31:07;96555.84;;;11.07;32.47
28000;BME280;15328;50.860;10.562;2023-04-26T11:36:08;96561.72;;;11.15;33.16
28000;BME280;15328;50.860;10.562;2023-04-26T11:41:09;96561.75;;;11.34;33.90
28000;BME280;15328;50.860;10.562;2023-04-26T11:46:10;96556.81;;;11.37;33.87
28000;BME280;15328;50.860;10.562;2023-04-26T11:51:11;96557.78;;;11.43;33.10
28000;BME280;15328;50.860;10.562;2023-04-26T11:56:18;96562.72;;;11.39;33.26
28000;BME280;15328;50.860;10.562;2023-04-26T12:01:29;96555.41;;;11.35;32.60
28000;BME280;15328;50.860;10.562;2023-04-26T12:06:47;96559.31;;;11.32;32.76
28000;BME280;15328;50.860;10.562;2023-04-26T12:12:03;96561.50;;;11.60;32.98
28000;BME280;15328;50.860;10.562;2023-04-26T12:17:06;96566.13;;;11.90;33.26
28000;BME280;15328;50.860;10.562;2023-04-26T12:22:07;96561.53;;;12.15;32.13
28000;BME280;15328;50.860;10.562;2023-04-26T12:27:08;96563.28;;;12.21;31.32
28000;BME280;15328;50.860;10.562;2023-04-26T12:32:12;96562.44;;;11.91;30.32
28000;BME280;15328;50.860;10.562;2023-04-26T12:37:18;96557.44;;;11.76;30.90
28000;BME280;15328;50.860;10.562;2023-04-26T12:42:21;96558.53;;;11.50;29.91
28000;BME280;15328;50.860;10.562;2023-04-26T12:47:21;96564.94;;;11.24;30.87
28000;BME280;15328;50.860;10.562;2023-04-26T12:52:21;96556.66;;;10.82;31.18
28000;BME280;15328;50.860;10.562;2023-04-26T12:57:43;96556.81;;;10.88;32.04
28000;BME280;15328;50.860;10.562;2023-04-26T13:02:55;96560.84;;;10.72;31.68
28000;BME280;15328;50.860;10.562;2023-04-26T13:08:05;96554.97;;;10.88;32.10
28000;BME280;15328;50.860;10.562;2023-04-26T13:13:05;96573.84;;;11.11;31.47
28000;BME280;15328;50.860;10.562;2023-04-26T13:18:21;96570.44;;;11.23;31.25
28000;BME280;15328;50.860;10.562;2023-04-26T13:23:21;96568.00;;;11.21;31.24
28000;BME280;15328;50.860;10.562;2023-04-26T13:28:24;96570.28;;;11.18;31.91
28000;BME280;15328;50.860;10.562;2023-04-26T13:33:25;96565.84;;;11.11;31.18
28000;BME280;15328;50.860;10.562;2023-04-26T13:38:25;96558.00;;;10.92;32.76
28000;BME280;15328;50.860;10.562;2023-04-26T13:43:28;96567.25;;;10.89;32.95
28000;BME280;15328;50.860;10.562;2023-04-26T13:48:28;96565.25;;;10.84;32.70
28000;BME280;15328;50.860;10.562;2023-04-26T13:53:32;96559.47;;;10.88;33.06
28000;BME280;15328;50.860;10.562;2023-04-26T13:58:32;96566.06;;;10.85;33.52
28000;BME280;15328;50.860;10.562;2023-04-26T14:03:32;96574.94;;;11.04;33.26
28000;BME280;15328;50.860;10.562;2023-04-26T14:08:33;96568.34;;;11.31;32.55
28000;BME280;15328;50.860;10.562;2023-04-26T14:13:34;96575.81;;;11.41;32.43
28000;BME280;15328;50.860;10.562;2023-04-26T14:18:35;96570.13;;;11.37;31.99
28000;BME280;15328;50.860;10.562;2023-04-26T14:23:35;96571.22;;;11.30;32.49
28000;BME280;15328;50.860;10.562;2023-04-26T14:28:36;96573.44;;;11.33;31.52
28000;BME280;15328;50.860;10.562;2023-04-26T14:33:36;96572.13;;;11.24;31.20
28000;BME280;15328;50.860;10.562;2023-04-26T14:38:40;96571.66;;;11.27;32.00
28000;BME280;15328;50.860;10.562;2023-04-26T14:43:41;96573.00;;;11.36;31.76
28000;BME280;15328;50.860;10.562;2023-04-26T14:48:42;96570.88;;;11.44;31.45
28000;BME280;15328;50.860;10.562;2023-04-26T14:53:43;96570.44;;;11.48;32.03
28000;BME280;15328;50.860;10.562;2023-04-26T14:58:43;96569.56;;;11.54;32.20
28000;BME280;15328;50.860;10.562;2023-04-26T15:03:43;96570.09;;;11.62;31.92
28000;BME280;15328;50.860;10.562;2023-04-26T15:08:45;96570.09;;;11.62;32.64
28000;BME280;15328;50.860;10.562;2023-04-26T15:13:45;96569.72;;;11.59;32.36
28000;BME280;15328;50.860;10.562;2023-04-26T15:18:46;96570.69;;;11.64;32.78
28000;BME280;15328;50.860;10.562;2023-04-26T15:23:46;96568.53;;;11.55;32.46
28000;BME280;15328;50.860;10.562;2023-04-26T15:28:47;96560.19;;;11.51;32.47
28000;BME280;15328;50.860;10.562;2023-04-26T15:33:47;96553.59;;;11.54;31.01
28000;BME280;15328;50.860;10.562;2023-04-26T15:38:48;96553.59;;;11.54;31.90
28000;BME280;15328;50.860;10.562;2023-04-26T15:43:52;96554.09;;;11.62;32.29
28000;BME280;15328;50.860;10.562;2023-04-26T15:48:54;96558.41;;;11.63;32.64
28000;BME280;15328;50.860;10.562;2023-04-26T15:53:54;96550.41;;;11.63;32.00
28000;BME280;15328;50.860;10.562;2023-04-26T15:58:55;96567.06;;;11.59;32.40
28000;BME280;15328;50.860;10.562;2023-04-26T16:03:56;96561.84;;;11.45;32.37
28000;BME280;15328;50.860;10.562;2023-04-26T16:08:56;96566.56;;;11.25;32.82
28000;BME280;15328;50.860;10.562;2023-04-26T16:13:57;96556.38;;;11.15;33.04
28000;BME280;15328;50.860;10.562;2023-04-26T16:18:57;96554.81;;;11.08;32.90
28000;BME280;15328;50.860;10.562;2023-04-26T16:23:58;96556.50;;;11.02;33.09
28000;BME280;15328;50.860;10.562;2023-04-26T16:28:59;96548.84;;;10.88;33.12
28000;BME280;15328;50.860;10.562;2023-04-26T16:34:00;96559.09;;;10.84;33.43
28000;BME280;15328;50.860;10.562;2023-04-26T16:39:00;96560.25;;;10.70;33.75
28000;BME280;15328;50.860;10.562;2023-04-26T16:44:01;96553.97;;;10.58;33.94
28000;BME280;15328;50.860;10.562;2023-04-26T16:49:04;96564.31;;;10.41;34.47
28000;BME280;15328;50.860;10.562;2023-04-26T16:54:09;96573.72;;;10.37;34.08
28000;BME280;15328;50.860;10.562;2023-04-26T16:59:09;96566.63;;;10.24;34.65
28000;BME280;15328;50.860;10.562;2023-04-26T17:04:09;96566.63;;;10.24;35.29
28000;BME280;15328;50.860;10.562;2023-04-26T17:09:10;96576.69;;;10.15;34.87
28000;BME280;15328;50.860;10.562;2023-04-26T17:14:12;96575.06;;;10.08;35.12
28000;BME280;15328;50.860;10.562;2023-04-26T17:19:12;96573.66;;;9.99;35.02
28000;BME280;15328;50.860;10.562;2023-04-26T17:24:12;96578.38;;;9.97;35.72
28000;BME280;15328;50.860;10.562;2023-04-26T17:29:13;96590.66;;;9.84;36.09
28000;BME280;15328;50.860;10.562;2023-04-26T17:34:13;96590.47;;;9.86;36.08
28000;BME280;15328;50.860;10.562;2023-04-26T17:39:22;96596.81;;;9.78;36.06
28000;BME280;15328;50.860;10.562;2023-04-26T17:44:26;96586.44;;;9.70;35.88
28000;BME280;15328;50.860;10.562;2023-04-26T17:49:26;96593.22;;;9.46;36.53
28000;BME280;15328;50.860;10.562;2023-04-26T17:54:26;96594.69;;;9.16;38.00
28000;BME280;15328;50.860;10.562;2023-04-26T17:59:27;96600.19;;;8.94;38.47
28000;BME280;15328;50.860;10.562;2023-04-26T18:04:30;96605.44;;;8.75;38.42
28000;BME280;15328;50.860;10.562;2023-04-26T18:09:46;96611.56;;;8.62;39.08
28000;BME280;15328;50.860;10.562;2023-04-26T18:14:49;96610.09;;;8.46;40.06
28000;BME280;15328;50.860;10.562;2023-04-26T18:19:50;96608.84;;;8.35;40.40
28000;BME280;15328;50.860;10.562;2023-04-26T18:24:51;96615.50;;;8.25;40.32
28000;BME280;15328;50.860;10.562;2023-04-26T18:29:51;96618.91;;;8.12;40.63
28000;BME280;15328;50.860;10.562;2023-04-26T18:34:51;96619.50;;;8.01;41.37
28000;BME280;15328;50.860;10.562;2023-04-26T18:39:52;96621.25;;;7.87;41.09
28000;BME280;15328;50.860;10.562;2023-04-26T18:44:52;96632.41;;;7.76;41.84
28000;BME280;15328;50.860;10.562;2023-04-26T18:49:52;96627.81;;;7.63;42.27
28000;BME280;15328;50.860;10.562;2023-04-26T18:54:53;96637.91;;;7.47;42.34
28000;BME280;15328;50.860;10.562;2023-04-26T18:59:53;96639.13;;;7.44;42.77
28000;BME280;15328;50.860;10.562;2023-04-26T19:04:56;96636.38;;;7.31;43.01
28000;BME280;15328;50.860;10.562;2023-04-26T19:09:57;96648.06;;;7.15;43.44
28000;BME280;15328;50.860;10.562;2023-04-26T19:14:59;96652.59;;;7.00;43.73
28000;BME280;15328;50.860;10.562;2023-04-26T19:20:00;96656.44;;;6.76;44.78
28000;BME280;15328;50.860;10.562;2023-04-26T19:25:01;96665.38;;;6.75;44.22
28000;BME280;15328;50.860;10.562;2023-04-26T19:30:07;96658.59;;;6.51;44.77
28000;BME280;15328;50.860;10.562;2023-04-26T19:35:08;96662.78;;;6.24;46.14
28000;BME280;15328;50.860;10.562;2023-04-26T19:40:08;96654.78;;;6.17;45.41
28000;BME280;15328;50.860;10.562;2023-04-26T19:45:09;96653.69;;;5.97;45.73
28000;BME280;15328;50.860;10.562;2023-04-26T19:50:10;96660.78;;;5.97;45.51
28000;BME280;15328;50.860;10.562;2023-04-26T19:55:10;96662.84;;;5.72;45.68
28000;BME280;15328;50.860;10.562;2023-04-26T20:00:11;96664.50;;;5.58;46.29
28000;BME280;15328;50.860;10.562;2023-04-26T20:05:12;96666.59;;;5.48;46.14
28000;BME280;15328;50.860;10.562;2023-04-26T20:10:12;96658.31;;;5.51;46.24
28000;BME280;15328;50.860;10.562;2023-04-26T20:15:13;96659.72;;;5.24;47.16
28000;BME280;15328;50.860;10.562;2023-04-26T20:20:15;96660.66;;;5.31;47.09
28000;BME280;15328;50.860;10.562;2023-04-26T20:25:15;96661.06;;;5.20;47.28
28000;BME280;15328;50.860;10.562;2023-04-26T20:30:18;96659.09;;;5.22;47.59
28000;BME280;15328;50.860;10.562;2023-04-26T20:35:19;96671.56;;;5.28;46.78
28000;BME280;15328;50.860;10.562;2023-04-26T20:40:19;96672.75;;;5.25;47.02
28000;BME280;15328;50.860;10.562;2023-04-26T20:45:21;96667.66;;;5.24;47.22
28000;BME280;15328;50.860;10.562;2023-04-26T20:50:21;96661.47;;;5.32;47.58
28000;BME280;15328;50.860;10.562;2023-04-26T20:55:22;96655.56;;;5.44;47.25
28000;BME280;15328;50.860;10.562;2023-04-26T21:00:22;96662.19;;;5.40;47.64
28000;BME280;15328;50.860;10.562;2023-04-26T21:05:22;96656.31;;;5.53;47.07
28000;BME280;15328;50.860;10.562;2023-04-26T21:10:23;96663.47;;;5.44;47.31
28000;BME280;15328;50.860;10.562;2023-04-26T21:15:23;96668.47;;;5.39;47.29
28000;BME280;15328;50.860;10.562;2023-04-26T21:20:23;96664.38;;;5.37;47.98
28000;BME280;15328;50.860;10.562;2023-04-26T21:25:24;96661.75;;;5.37;48.88
28000;BME280;15328;50.860;10.562;2023-04-26T21:30:24;96669.09;;;5.41;48.14
28000;BME280;15328;50.860;10.562;2023-04-26T21:35:25;96665.19;;;5.37;48.47
28000;BME280;15328;50.860;10.562;2023-04-26T21:40:25;96666.47;;;5.41;48.39
28000;BME280;15328;50.860;10.562;2023-04-26T21:45:25;96665.09;;;5.45;48.51
28000;BME280;15328;50.860;10.562;2023-04-26T21:50:26;96666.84;;;5.38;48.63
28000;BME280;15328;50.860;10.562;2023-04-26T21:55:26;96663.38;;;5.38;48.81
28000;BME280;15328;50.860;10.562;2023-04-26T22:00:26;96671.69;;;5.49;48.93
28000;BME280;15328;50.860;10.562;2023-04-26T22:05:27;96670.09;;;5.40;48.95
28000;BME280;15328;50.860;10.562;2023-04-26T22:10:28;96664.22;;;5.53;48.93
28000;BME280;15328;50.860;10.562;2023-04-26T22:15:28;96677.03;;;5.41;49.14
28000;BME280;15328;50.860;10.562;2023-04-26T22:20:29;96676.97;;;5.49;49.18
28000;BME280;15328;50.860;10.562;2023-04-26T22:25:29;96675.78;;;5.52;49.17
28000;BME280;15328;50.860;10.562;2023-04-26T22:30:30;96679.25;;;5.52;48.40
28000;BME280;15328;50.860;10.562;2023-04-26T22:35:30;96671.31;;;5.52;48.68
28000;BME280;15328;50.860;10.562;2023-04-26T22:40:30;96677.38;;;5.38;49.42
28000;BME280;15328;50.860;10.562;2023-04-26T22:45:31;96685.94;;;5.40;49.54
28000;BME280;15328;50.860;10.562;2023-04-26T22:50:32;96678.94;;;5.33;49.39
28000;BME280;15328;50.860;10.562;2023-04-26T22:55:33;96686.56;;;5.27;49.71
28000;BME280;15328;50.860;10.562;2023-04-26T23:00:33;96680.09;;;5.30;49.09
28000;BME280;15328;50.860;10.562;2023-04-26T23:05:33;96682.66;;;5.23;49.69
28000;BME280;15328;50.860;10.562;2023-04-26T23:10:34;96690.66;;;5.30;49.23
28000;BME280;15328;50.860;10.562;2023-04-26T23:15:34;96687.56;;;5.41;48.96
28000;BME280;15328;50.860;10.562;2023-04-26T23:20:34;96690.16;;;5.49;48.74
28000;BME280;15328;50.860;10.562;2023-04-26T23:25:35;96689.75;;;5.38;48.41
28000;BME280;15328;50.860;10.562;2023-04-26T23:30:35;96690.84;;;5.43;48.81
28000;BME280;15328;50.860;10.562;2023-04-26T23:35:39;96698.22;;;5.33;48.77
28000;BME280;15328;50.860;10.562;2023-04-26T23:40:40;96692.47;;;5.30;49.40
28000;BME280;15328;50.860;10.562;2023-04-26T23:45:40;96697.53;;;5.16;49.34
28000;BME280;15328;50.860;10.562;2023-04-26T23:50:46;96686.19;;;5.31;48.94
28000;BME280;15328;50.860;10.562;2023-04-26T23:55:46;96687.28;;;5.21;49.36
